sensor_id;sensor_type;location;lat;lon;timestamp;temperature;humidity
9049;DHT22;4559;47.252;9.592;2022-08-03T00:01:35;21.60;99.90
9049;DHT22;4559;47.252;9.592;2022-08-03T00:04:01;21.60;99.90
9049;DHT22;4559;47.252;9.592;2022-08-03T00:06:26;21.60;99.90
9049;DHT22;4559;47.252;9.592;2022-08-03T00:08:52;21.50;99.90
9049;DHT22;4559;47.252;9.592;2022-08-03T00:11:18;21.50;99.90
9049;DHT22;4559;47.252;9.592;2022-08-03T00:13:43;21.40;99.90
9049;DHT22;4559;47.252;9.592;2022-08-03T00:16:09;21.40;99.90
9049;DHT22;4559;47.252;9.592;2022-08-03T00:18:36;21.40;99.90
9049;DHT22;4559;47.252;9.592;2022-08-03T00:21:02;21.40;99.90
9049;DHT22;4559;47.252;9.592;2022-08-03T00:23:28;21.30;99.90
9049;DHT22;4559;47.252;9.592;2022-08-03T00:25:54;21.30;99.90
9049;DHT22;4559;47.252;9.592;2022-08-03T00:28:20;21.30;99.90
9049;DHT22;4559;47.252;9.592;2022-08-03T00:30:45;21.30;99.90
9049;DHT22;4559;47.252;9.592;2022-08-03T00:33:11;21.30;99.90
9049;DHT22;4559;47.252;9.592;2022-08-03T00:35:37;21.30;99.90
9049;DHT22;4559;47.252;9.592;2022-08-03T00:38:03;21.30;99.90
9049;DHT22;4559;47.252;9.592;2022-08-03T00:40:28;21.30;99.90
9049;DHT22;4559;47.252;9.592;2022-08-03T00:42:56;21.30;99.90
9049;DHT22;4559;47.252;9.592;2022-08-03T00:45:24;21.30;99.90
9049;DHT22;4559;47.252;9.592;2022-08-03T00:47:51;21.20;99.90
9049;DHT22;4559;47.252;9.592;2022-08-03T00:50:18;21.20;99.90
9049;DHT22;4559;47.252;9.592;2022-08-03T00:52:45;21.20;99.90
9049;DHT22;4559;47.252;9.592;2022-08-03T00:55:11;21.10;99.90
9049;DHT22;4559;47.252;9.592;2022-08-03T00:57:37;21.20;99.90
9049;DHT22;4559;47.252;9.592;2022-08-03T01:00:05;21.10;99.90
9049;DHT22;4559;47.252;9.592;2022-08-03T01:02:32;21.10;99.90
9049;DHT22;4559;47.252;9.592;2022-08-03T01:04:58;21.10;99.90
9049;DHT22;4559;47.252;9.592;2022-08-03T01:12:58;21.20;99.90
9049;DHT22;4559;47.252;9.592;2022-08-03T01:15:43;21.20;99.90
9049;DHT22;4559;47.252;9.592;2022-08-03T01:18:17;21.20;99.90
9049;DHT22;4559;47.252;9.592;2022-08-03T01:20:47;21.20;99.90
9049;DHT22;4559;47.252;9.592;2022-08-03T01:31:26;21.30;99.90
9049;DHT22;4559;47.252;9.592;2022-08-03T01:33:58;21.30;99.90
9049;DHT22;4559;47.252;9.592;2022-08-03T01:36:37;21.30;99.90
9049;DHT22;4559;47.252;9.592;2022-08-03T01:39:05;21.30;99.90
9049;DHT22;4559;47.252;9.592;2022-08-03T01:41:41;21.20;99.90
9049;DHT22;4559;47.252;9.592;2022-08-03T01:44:10;21.20;99.90
9049;DHT22;4559;47.252;9.592;2022-08-03T01:46:37;21.20;99.90
9049;DHT22;4559;47.252;9.592;2022-08-03T01:49:07;21.20;99.90
9049;DHT22;4559;47.252;9.592;2022-08-03T01:51:37;21.10;99.90
9049;DHT22;4559;47.252;9.592;2022-08-03T01:54:04;21.10;99.90
9049;DHT22;4559;47.252;9.592;2022-08-03T01:56:32;21.10;99.90
9049;DHT22;4559;47.252;9.592;2022-08-03T01:59:00;21.10;99.90
9049;DHT22;4559;47.252;9.592;2022-08-03T02:01:27;21.10;99.90
9049;DHT22;4559;47.252;9.592;2022-08-03T02:03:53;21.00;99.90
9049;DHT22;4559;47.252;9.592;2022-08-03T02:06:21;21.00;99.90
9049;DHT22;4559;47.252;9.592;2022-08-03T02:08:48;21.00;99.90
9049;DHT22;4559;47.252;9.592;2022-08-03T02:11:15;20.90;99.90
9049;DHT22;4559;47.252;9.592;2022-08-03T02:13:42;20.80;99.90
9049;DHT22;4559;47.252;9.592;2022-08-03T02:16:09;20.80;99.90
9049;DHT22;4559;47.252;9.592;2022-08-03T02:18:36;20.80;99.90
9049;DHT22;4559;47.252;9.592;2022-08-03T02:21:04;20.70;99.90
9049;DHT22;4559;47.252;9.592;2022-08-03T02:23:32;20.70;99.90
9049;DHT22;4559;47.252;9.592;2022-08-03T02:26:01;20.70;99.90
9049;DHT22;4559;47.252;9.592;2022-08-03T02:28:38;20.70;99.90
9049;DHT22;4559;47.252;9.592;2022-08-03T02:31:11;20.60;99.90
9049;DHT22;4559;47.252;9.592;2022-08-03T02:33:41;20.50;99.90
9049;DHT22;4559;47.252;9.592;2022-08-03T02:36:10;20.50;99.90
9049;DHT22;4559;47.252;9.592;2022-08-03T02:38:39;20.40;99.90
9049;DHT22;4559;47.252;9.592;2022-08-03T02:41:10;20.40;99.90
9049;DHT22;4559;47.252;9.592;2022-08-03T02:43:39;20.40;99.90
9049;DHT22;4559;47.252;9.592;2022-08-03T02:46:06;20.40;99.90
9049;DHT22;4559;47.252;9.592;2022-08-03T02:48:35;20.40;99.90
9049;DHT22;4559;47.252;9.592;2022-08-03T02:51:02;20.40;99.90
9049;DHT22;4559;47.252;9.592;2022-08-03T02:53:29;20.30;99.90
9049;DHT22;4559;47.252;9.592;2022-08-03T02:55:57;20.30;99.90
9049;DHT22;4559;47.252;9.592;2022-08-03T02:58:23;20.20;99.90
9049;DHT22;4559;47.252;9.592;2022-08-03T03:00:50;20.30;99.90
9049;DHT22;4559;47.252;9.592;2022-08-03T03:03:17;20.20;99.90
9049;DHT22;4559;47.252;9.592;2022-08-03T03:05:43;20.10;99.90
9049;DHT22;4559;47.252;9.592;2022-08-03T03:08:12;20.20;99.90
9049;DHT22;4559;47.252;9.592;2022-08-03T03:10:39;20.10;99.90
9049;DHT22;4559;47.252;9.592;2022-08-03T03:13:05;20.10;99.90
9049;DHT22;4559;47.252;9.592;2022-08-03T03:15:32;20.10;99.90
9049;DHT22;4559;47.252;9.592;2022-08-03T03:18:00;20.10;99.90
9049;DHT22;4559;47.252;9.592;2022-08-03T03:20:27;20.10;99.90
9049;DHT22;4559;47.252;9.592;2022-08-03T03:22:53;20.10;99.90
9049;DHT22;4559;47.252;9.592;2022-08-03T03:25:20;20.00;99.90
9049;DHT22;4559;47.252;9.592;2022-08-03T03:27:46;20.00;99.90
9049;DHT22;4559;47.252;9.592;2022-08-03T03:30:13;20.10;99.90
9049;DHT22;4559;47.252;9.592;2022-08-03T03:32:39;20.00;99.90
9049;DHT22;4559;47.252;9.592;2022-08-03T03:35:06;20.00;99.90
9049;DHT22;4559;47.252;9.592;2022-08-03T03:37:32;20.00;99.90
9049;DHT22;4559;47.252;9.592;2022-08-03T03:39:58;19.90;99.90
9049;DHT22;4559;47.252;9.592;2022-08-03T03:42:24;19.90;99.90
9049;DHT22;4559;47.252;9.592;2022-08-03T03:44:50;19.90;99.90
9049;DHT22;4559;47.252;9.592;2022-08-03T03:47:16;19.90;99.90
9049;DHT22;4559;47.252;9.592;2022-08-03T03:49:42;19.80;99.90
9049;DHT22;4559;47.252;9.592;2022-08-03T03:52:09;19.80;99.90
9049;DHT22;4559;47.252;9.592;2022-08-03T03:54:43;19.80;99.90
9049;DHT22;4559;47.252;9.592;2022-08-03T03:57:09;19.80;99.90
9049;DHT22;4559;47.252;9.592;2022-08-03T03:59:39;19.80;99.90
9049;DHT22;4559;47.252;9.592;2022-08-03T04:02:09;19.70;99.90
9049;DHT22;4559;47.252;9.592;2022-08-03T04:04:35;19.70;99.90
9049;DHT22;4559;47.252;9.592;2022-08-03T04:07:20;19.70;99.90
9049;DHT22;4559;47.252;9.592;2022-08-03T04:10:20;19.70;99.90
9049;DHT22;4559;47.252;9.592;2022-08-03T04:13:08;19.70;99.90
9049;DHT22;4559;47.252;9.592;2022-08-03T04:15:37;19.70;99.90
9049;DHT22;4559;47.252;9.592;2022-08-03T04:18:03;19.70;99.90
9049;DHT22;4559;47.252;9.592;2022-08-03T04:20:31;19.70;99.90
9049;DHT22;4559;47.252;9.592;2022-08-03T04:23:00;19.70;99.90
9049;DHT22;4559;47.252;9.592;2022-08-03T04:25:30;19.80;99.90
9049;DHT22;4559;47.252;9.592;2022-08-03T04:27:59;19.80;99.90
9049;DHT22;4559;47.252;9.592;2022-08-03T04:30:27;19.80;99.90
9049;DHT22;4559;47.252;9.592;2022-08-03T04:32:57;19.80;99.90
9049;DHT22;4559;47.252;9.592;2022-08-03T04:35:28;19.80;99.90
9049;DHT22;4559;47.252;9.592;2022-08-03T04:37:58;19.80;99.90
9049;DHT22;4559;47.252;9.592;2022-08-03T04:40:29;19.80;99.90
9049;DHT22;4559;47.252;9.592;2022-08-03T04:42:55;19.70;99.90
9049;DHT22;4559;47.252;9.592;2022-08-03T04:45:23;19.80;99.90
9049;DHT22;4559;47.252;9.592;2022-08-03T04:47:49;19.80;99.90
9049;DHT22;4559;47.252;9.592;2022-08-03T04:50:16;19.70;99.90
9049;DHT22;4559;47.252;9.592;2022-08-03T04:52:42;19.70;99.90
9049;DHT22;4559;47.252;9.592;2022-08-03T04:55:08;19.70;99.90
9049;DHT22;4559;47.252;9.592;2022-08-03T04:57:34;19.70;99.90
9049;DHT22;4559;47.252;9.592;2022-08-03T04:59:59;19.70;99.90
9049;DHT22;4559;47.252;9.592;2022-08-03T05:02:25;19.70;99.90
9049;DHT22;4559;47.252;9.592;2022-08-03T05:04:50;19.70;99.90
9049;DHT22;4559;47.252;9.592;2022-08-03T05:07:17;19.70;99.90
9049;DHT22;4559;47.252;9.592;2022-08-03T05:09:43;19.60;99.90
9049;DHT22;4559;47.252;9.592;2022-08-03T05:12:09;19.60;99.90
9049;DHT22;4559;47.252;9.592;2022-08-03T05:14:36;19.60;99.90
9049;DHT22;4559;47.252;9.592;2022-08-03T05:17:06;19.70;99.90
9049;DHT22;4559;47.252;9.592;2022-08-03T05:19:32;19.70;99.90
9049;DHT22;4559;47.252;9.592;2022-08-03T05:21:58;19.70;99.90
9049;DHT22;4559;47.252;9.592;2022-08-03T05:24:24;19.70;99.90
9049;DHT22;4559;47.252;9.592;2022-08-03T05:26:49;19.70;99.90
9049;DHT22;4559;47.252;9.592;2022-08-03T05:29:15;19.80;99.90
9049;DHT22;4559;47.252;9.592;2022-08-03T05:31:41;19.80;99.90
9049;DHT22;4559;47.252;9.592;2022-08-03T05:34:06;19.80;99.90
9049;DHT22;4559;47.252;9.592;2022-08-03T05:36:32;19.80;99.90
9049;DHT22;4559;47.252;9.592;2022-08-03T05:38:57;19.90;99.90
9049;DHT22;4559;47.252;9.592;2022-08-03T05:41:23;19.90;99.90
9049;DHT22;4559;47.252;9.592;2022-08-03T05:43:52;19.90;99.90
9049;DHT22;4559;47.252;9.592;2022-08-03T05:46:18;19.90;99.90
9049;DHT22;4559;47.252;9.592;2022-08-03T05:48:45;20.00;99.90
9049;DHT22;4559;47.252;9.592;2022-08-03T05:51:11;20.10;99.90
9049;DHT22;4559;47.252;9.592;2022-08-03T05:53:37;20.10;99.90
9049;DHT22;4559;47.252;9.592;2022-08-03T05:56:03;20.20;99.90
9049;DHT22;4559;47.252;9.592;2022-08-03T05:58:28;20.40;99.90
9049;DHT22;4559;47.252;9.592;2022-08-03T06:00:55;20.60;99.90
9049;DHT22;4559;47.252;9.592;2022-08-03T06:03:20;20.70;99.90
9049;DHT22;4559;47.252;9.592;2022-08-03T06:05:46;20.80;99.90
9049;DHT22;4559;47.252;9.592;2022-08-03T06:08:12;21.00;99.90
9049;DHT22;4559;47.252;9.592;2022-08-03T06:10:37;21.20;99.90
9049;DHT22;4559;47.252;9.592;2022-08-03T06:13:03;21.30;99.90
9049;DHT22;4559;47.252;9.592;2022-08-03T06:15:29;21.50;99.90
9049;DHT22;4559;47.252;9.592;2022-08-03T06:17:57;21.60;99.90
9049;DHT22;4559;47.252;9.592;2022-08-03T06:20:23;21.70;99.90
9049;DHT22;4559;47.252;9.592;2022-08-03T06:22:49;21.80;99.90
9049;DHT22;4559;47.252;9.592;2022-08-03T06:25:15;22.00;99.90
9049;DHT22;4559;47.252;9.592;2022-08-03T06:27:41;22.10;99.90
9049;DHT22;4559;47.252;9.592;2022-08-03T06:30:08;22.20;99.90
9049;DHT22;4559;47.252;9.592;2022-08-03T06:32:38;22.30;99.90
9049;DHT22;4559;47.252;9.592;2022-08-03T06:35:06;22.40;99.90
9049;DHT22;4559;47.252;9.592;2022-08-03T06:37:44;22.60;99.90
9049;DHT22;4559;47.252;9.592;2022-08-03T06:40:15;22.80;99.90
9049;DHT22;4559;47.252;9.592;2022-08-03T06:42:41;23.00;99.90
9049;DHT22;4559;47.252;9.592;2022-08-03T06:45:08;23.10;99.90
9049;DHT22;4559;47.252;9.592;2022-08-03T06:47:38;23.20;99.90
9049;DHT22;4559;47.252;9.592;2022-08-03T06:50:05;23.40;99.90
9049;DHT22;4559;47.252;9.592;2022-08-03T06:52:31;23.50;99.90
9049;DHT22;4559;47.252;9.592;2022-08-03T06:54:57;23.60;99.90
9049;DHT22;4559;47.252;9.592;2022-08-03T06:57:23;23.70;99.50
9049;DHT22;4559;47.252;9.592;2022-08-03T06:59:49;23.80;99.30
9049;DHT22;4559;47.252;9.592;2022-08-03T07:02:15;24.00;99.30
9049;DHT22;4559;47.252;9.592;2022-08-03T07:04:40;24.10;99.10
9049;DHT22;4559;47.252;9.592;2022-08-03T07:07:06;24.30;98.80
9049;DHT22;4559;47.252;9.592;2022-08-03T07:09:32;24.40;98.60
9049;DHT22;4559;47.252;9.592;2022-08-03T07:11:57;24.50;98.10
9049;DHT22;4559;47.252;9.592;2022-08-03T07:14:23;24.60;98.20
9049;DHT22;4559;47.252;9.592;2022-08-03T07:16:49;24.80;98.00
9049;DHT22;4559;47.252;9.592;2022-08-03T07:19:14;24.90;97.90
9049;DHT22;4559;47.252;9.592;2022-08-03T07:21:40;24.90;97.10
9049;DHT22;4559;47.252;9.592;2022-08-03T07:24:06;25.10;97.20
9049;DHT22;4559;47.252;9.592;2022-08-03T07:26:31;25.20;98.00
9049;DHT22;4559;47.252;9.592;2022-08-03T07:28:57;25.40;97.70
9049;DHT22;4559;47.252;9.592;2022-08-03T07:31:25;25.60;96.90
9049;DHT22;4559;47.252;9.592;2022-08-03T07:33:50;25.70;97.00
9049;DHT22;4559;47.252;9.592;2022-08-03T07:36:16;25.80;96.80
9049;DHT22;4559;47.252;9.592;2022-08-03T07:38:41;26.00;96.70
9049;DHT22;4559;47.252;9.592;2022-08-03T07:41:07;26.20;96.60
9049;DHT22;4559;47.252;9.592;2022-08-03T07:43:33;26.30;96.40
9049;DHT22;4559;47.252;9.592;2022-08-03T07:45:58;26.50;95.60
9049;DHT22;4559;47.252;9.592;2022-08-03T07:48:24;26.70;95.30
9049;DHT22;4559;47.252;9.592;2022-08-03T07:50:49;26.80;95.50
9049;DHT22;4559;47.252;9.592;2022-08-03T07:53:16;27.00;95.30
9049;DHT22;4559;47.252;9.592;2022-08-03T07:55:41;27.20;95.10
9049;DHT22;4559;47.252;9.592;2022-08-03T07:58:09;27.30;94.60
9049;DHT22;4559;47.252;9.592;2022-08-03T08:00:36;27.50;94.00
9049;DHT22;4559;47.252;9.592;2022-08-03T08:03:03;27.60;93.90
9049;DHT22;4559;47.252;9.592;2022-08-03T08:05:29;27.70;93.10
9049;DHT22;4559;47.252;9.592;2022-08-03T08:07:55;27.90;93.00
9049;DHT22;4559;47.252;9.592;2022-08-03T08:10:21;27.90;92.50
9049;DHT22;4559;47.252;9.592;2022-08-03T08:12:47;28.00;92.10
9049;DHT22;4559;47.252;9.592;2022-08-03T08:15:12;28.20;92.30
9049;DHT22;4559;47.252;9.592;2022-08-03T08:20:14;28.50;91.80
9049;DHT22;4559;47.252;9.592;2022-08-03T08:22:40;28.60;91.80
9049;DHT22;4559;47.252;9.592;2022-08-03T08:25:05;28.80;91.90
9049;DHT22;4559;47.252;9.592;2022-08-03T08:27:31;29.00;91.40
9049;DHT22;4559;47.252;9.592;2022-08-03T08:29:57;29.10;90.60
9049;DHT22;4559;47.252;9.592;2022-08-03T08:32:22;29.20;90.50
9049;DHT22;4559;47.252;9.592;2022-08-03T08:34:48;29.30;90.30
9049;DHT22;4559;47.252;9.592;2022-08-03T08:37:14;29.40;90.20
9049;DHT22;4559;47.252;9.592;2022-08-03T08:39:39;29.50;88.30
9049;DHT22;4559;47.252;9.592;2022-08-03T08:42:05;29.60;88.10
9049;DHT22;4559;47.252;9.592;2022-08-03T08:44:31;29.70;85.40
9049;DHT22;4559;47.252;9.592;2022-08-03T08:46:56;29.80;86.90
9049;DHT22;4559;47.252;9.592;2022-08-03T08:49:26;29.90;87.30
9049;DHT22;4559;47.252;9.592;2022-08-03T08:51:53;30.00;85.50
9049;DHT22;4559;47.252;9.592;2022-08-03T08:54:21;30.00;83.50
9049;DHT22;4559;47.252;9.592;2022-08-03T08:56:51;30.10;82.20
9049;DHT22;4559;47.252;9.592;2022-08-03T08:59:17;30.20;81.20
9049;DHT22;4559;47.252;9.592;2022-08-03T09:01:43;30.20;80.40
9049;DHT22;4559;47.252;9.592;2022-08-03T09:04:09;30.30;81.00
9049;DHT22;4559;47.252;9.592;2022-08-03T09:06:35;30.40;80.80
9049;DHT22;4559;47.252;9.592;2022-08-03T09:09:01;30.50;82.00
9049;DHT22;4559;47.252;9.592;2022-08-03T09:11:26;30.60;79.30
9049;DHT22;4559;47.252;9.592;2022-08-03T09:13:52;30.70;81.20
9049;DHT22;4559;47.252;9.592;2022-08-03T09:16:20;30.80;80.00
9049;DHT22;4559;47.252;9.592;2022-08-03T09:18:53;30.80;79.40
9049;DHT22;4559;47.252;9.592;2022-08-03T09:21:25;31.00;82.30
9049;DHT22;4559;47.252;9.592;2022-08-03T09:23:53;31.10;78.30
9049;DHT22;4559;47.252;9.592;2022-08-03T09:26:24;31.10;76.30
9049;DHT22;4559;47.252;9.592;2022-08-03T09:31:41;31.20;76.70
9049;DHT22;4559;47.252;9.592;2022-08-03T09:34:08;31.30;77.80
9049;DHT22;4559;47.252;9.592;2022-08-03T09:36:36;31.30;75.50
9049;DHT22;4559;47.252;9.592;2022-08-03T09:39:11;31.40;75.50
9049;DHT22;4559;47.252;9.592;2022-08-03T09:41:42;31.50;75.90
9049;DHT22;4559;47.252;9.592;2022-08-03T09:44:08;31.50;74.90
9049;DHT22;4559;47.252;9.592;2022-08-03T09:46:50;31.60;73.00
9049;DHT22;4559;47.252;9.592;2022-08-03T09:49:16;31.70;72.80
9049;DHT22;4559;47.252;9.592;2022-08-03T09:51:42;31.90;74.50
9049;DHT22;4559;47.252;9.592;2022-08-03T09:54:08;32.00;72.50
9049;DHT22;4559;47.252;9.592;2022-08-03T09:59:06;32.00;70.20
9049;DHT22;4559;47.252;9.592;2022-08-03T10:01:33;32.10;72.50
9049;DHT22;4559;47.252;9.592;2022-08-03T10:03:59;32.10;70.50
9049;DHT22;4559;47.252;9.592;2022-08-03T10:06:25;32.20;69.50
9049;DHT22;4559;47.252;9.592;2022-08-03T10:09:15;32.30;71.50
9049;DHT22;4559;47.252;9.592;2022-08-03T10:11:42;32.40;69.40
9049;DHT22;4559;47.252;9.592;2022-08-03T10:14:10;32.40;70.40
9049;DHT22;4559;47.252;9.592;2022-08-03T10:16:43;32.50;72.40
9049;DHT22;4559;47.252;9.592;2022-08-03T10:19:09;32.70;73.00
9049;DHT22;4559;47.252;9.592;2022-08-03T10:21:37;32.90;74.50
9049;DHT22;4559;47.252;9.592;2022-08-03T10:24:04;32.90;73.80
9049;DHT22;4559;47.252;9.592;2022-08-03T10:26:34;33.00;73.90
9049;DHT22;4559;47.252;9.592;2022-08-03T10:29:03;33.00;71.30
9049;DHT22;4559;47.252;9.592;2022-08-03T10:31:38;33.10;74.90
9049;DHT22;4559;47.252;9.592;2022-08-03T10:34:21;33.20;74.90
9049;DHT22;4559;47.252;9.592;2022-08-03T10:36:48;33.30;74.40
9049;DHT22;4559;47.252;9.592;2022-08-03T10:39:17;33.30;74.00
9049;DHT22;4559;47.252;9.592;2022-08-03T10:41:44;33.40;74.40
9049;DHT22;4559;47.252;9.592;2022-08-03T10:44:18;33.50;74.30
9049;DHT22;4559;47.252;9.592;2022-08-03T10:46:45;33.50;72.70
9049;DHT22;4559;47.252;9.592;2022-08-03T10:49:16;33.60;70.40
9049;DHT22;4559;47.252;9.592;2022-08-03T10:51:47;33.60;72.10
9049;DHT22;4559;47.252;9.592;2022-08-03T10:54:39;33.60;70.60
9049;DHT22;4559;47.252;9.592;2022-08-03T10:57:51;33.70;72.70
9049;DHT22;4559;47.252;9.592;2022-08-03T11:00:23;33.70;72.50
9049;DHT22;4559;47.252;9.592;2022-08-03T11:03:02;33.80;69.60
9049;DHT22;4559;47.252;9.592;2022-08-03T11:05:29;33.70;72.20
9049;DHT22;4559;47.252;9.592;2022-08-03T11:08:24;33.80;71.20
9049;DHT22;4559;47.252;9.592;2022-08-03T11:10:52;33.80;72.90
9049;DHT22;4559;47.252;9.592;2022-08-03T11:13:21;33.80;71.20
9049;DHT22;4559;47.252;9.592;2022-08-03T11:15:50;33.80;68.00
9049;DHT22;4559;47.252;9.592;2022-08-03T11:18:16;33.80;69.00
9049;DHT22;4559;47.252;9.592;2022-08-03T11:20:51;33.90;70.20
9049;DHT22;4559;47.252;9.592;2022-08-03T11:23:44;34.00;70.40
9049;DHT22;4559;47.252;9.592;2022-08-03T11:26:15;34.00;70.20
9049;DHT22;4559;47.252;9.592;2022-08-03T11:28:43;34.00;69.40
9049;DHT22;4559;47.252;9.592;2022-08-03T11:34:07;34.00;68.80
9049;DHT22;4559;47.252;9.592;2022-08-03T11:39:44;34.10;68.40
9049;DHT22;4559;47.252;9.592;2022-08-03T11:44:53;34.20;71.10
9049;DHT22;4559;47.252;9.592;2022-08-03T11:47:20;34.20;69.80
9049;DHT22;4559;47.252;9.592;2022-08-03T11:49:47;34.20;69.90
9049;DHT22;4559;47.252;9.592;2022-08-03T11:52:13;34.30;69.80
9049;DHT22;4559;47.252;9.592;2022-08-03T11:54:40;34.40;70.00
9049;DHT22;4559;47.252;9.592;2022-08-03T11:57:07;34.50;67.80
9049;DHT22;4559;47.252;9.592;2022-08-03T11:59:34;34.50;67.70
9049;DHT22;4559;47.252;9.592;2022-08-03T12:02:10;34.40;67.10
9049;DHT22;4559;47.252;9.592;2022-08-03T12:04:55;34.60;68.50
9049;DHT22;4559;47.252;9.592;2022-08-03T12:07:29;34.50;66.00
9049;DHT22;4559;47.252;9.592;2022-08-03T12:10:24;34.50;67.80
9049;DHT22;4559;47.252;9.592;2022-08-03T12:12:55;34.60;67.50
9049;DHT22;4559;47.252;9.592;2022-08-03T12:15:25;34.60;67.80
9049;DHT22;4559;47.252;9.592;2022-08-03T12:17:51;34.60;66.80
9049;DHT22;4559;47.252;9.592;2022-08-03T12:20:22;34.70;67.80
9049;DHT22;4559;47.252;9.592;2022-08-03T12:22:48;34.60;67.20
9049;DHT22;4559;47.252;9.592;2022-08-03T12:25:40;34.60;66.60
9049;DHT22;4559;47.252;9.592;2022-08-03T12:28:07;34.70;67.80
9049;DHT22;4559;47.252;9.592;2022-08-03T12:30:33;34.70;66.10
9049;DHT22;4559;47.252;9.592;2022-08-03T12:36:01;34.80;67.20
9049;DHT22;4559;47.252;9.592;2022-08-03T12:38:29;34.80;66.00
9049;DHT22;4559;47.252;9.592;2022-08-03T12:41:04;34.80;66.70
9049;DHT22;4559;47.252;9.592;2022-08-03T12:43:30;34.80;66.70
9049;DHT22;4559;47.252;9.592;2022-08-03T12:46:15;34.80;66.30
9049;DHT22;4559;47.252;9.592;2022-08-03T12:49:05;34.80;65.90
9049;DHT22;4559;47.252;9.592;2022-08-03T12:51:55;34.80;65.90
9049;DHT22;4559;47.252;9.592;2022-08-03T12:54:24;34.90;65.40
9049;DHT22;4559;47.252;9.592;2022-08-03T12:56:59;34.90;64.90
9049;DHT22;4559;47.252;9.592;2022-08-03T12:59:30;35.00;65.10
9049;DHT22;4559;47.252;9.592;2022-08-03T13:01:56;35.00;63.90
9049;DHT22;4559;47.252;9.592;2022-08-03T13:04:26;35.10;65.10
9049;DHT22;4559;47.252;9.592;2022-08-03T13:07:04;35.10;64.10
9049;DHT22;4559;47.252;9.592;2022-08-03T13:09:39;35.20;64.10
9049;DHT22;4559;47.252;9.592;2022-08-03T13:12:06;35.30;67.20
9049;DHT22;4559;47.252;9.592;2022-08-03T13:14:32;35.30;65.40
9049;DHT22;4559;47.252;9.592;2022-08-03T13:16:58;35.30;66.10
9049;DHT22;4559;47.252;9.592;2022-08-03T13:19:24;35.30;64.80
9049;DHT22;4559;47.252;9.592;2022-08-03T13:21:49;35.30;64.70
9049;DHT22;4559;47.252;9.592;2022-08-03T13:24:15;35.30;63.20
9049;DHT22;4559;47.252;9.592;2022-08-03T13:26:41;35.30;64.20
9049;DHT22;4559;47.252;9.592;2022-08-03T13:29:06;35.30;64.50
9049;DHT22;4559;47.252;9.592;2022-08-03T13:31:32;35.30;63.90
9049;DHT22;4559;47.252;9.592;2022-08-03T13:33:57;35.20;64.80
9049;DHT22;4559;47.252;9.592;2022-08-03T13:36:23;35.20;64.40
9049;DHT22;4559;47.252;9.592;2022-08-03T13:38:49;35.20;63.70
9049;DHT22;4559;47.252;9.592;2022-08-03T13:41:15;35.20;64.50
9049;DHT22;4559;47.252;9.592;2022-08-03T13:43:40;35.30;64.50
9049;DHT22;4559;47.252;9.592;2022-08-03T13:46:06;35.30;63.70
9049;DHT22;4559;47.252;9.592;2022-08-03T13:48:32;35.20;64.10
9049;DHT22;4559;47.252;9.592;2022-08-03T13:50:57;35.10;63.20
9049;DHT22;4559;47.252;9.592;2022-08-03T13:53:23;35.10;63.10
9049;DHT22;4559;47.252;9.592;2022-08-03T13:55:49;35.00;63.80
9049;DHT22;4559;47.252;9.592;2022-08-03T13:58:14;35.00;64.40
9049;DHT22;4559;47.252;9.592;2022-08-03T14:00:40;35.00;63.80
9049;DHT22;4559;47.252;9.592;2022-08-03T14:03:06;35.10;64.80
9049;DHT22;4559;47.252;9.592;2022-08-03T14:05:33;35.10;63.30
9049;DHT22;4559;47.252;9.592;2022-08-03T14:08:00;35.10;62.80
9049;DHT22;4559;47.252;9.592;2022-08-03T14:10:26;35.00;62.70
9049;DHT22;4559;47.252;9.592;2022-08-03T14:12:52;35.00;64.70
9049;DHT22;4559;47.252;9.592;2022-08-03T14:15:17;35.00;64.50
9049;DHT22;4559;47.252;9.592;2022-08-03T14:17:43;35.00;63.30
9049;DHT22;4559;47.252;9.592;2022-08-03T14:20:09;35.00;63.20
9049;DHT22;4559;47.252;9.592;2022-08-03T14:22:37;35.00;62.30
9049;DHT22;4559;47.252;9.592;2022-08-03T14:25:02;35.00;62.80
9049;DHT22;4559;47.252;9.592;2022-08-03T14:27:28;34.90;63.00
9049;DHT22;4559;47.252;9.592;2022-08-03T14:29:54;34.90;61.70
9049;DHT22;4559;47.252;9.592;2022-08-03T14:32:24;34.90;62.50
9049;DHT22;4559;47.252;9.592;2022-08-03T14:34:49;34.90;62.50
9049;DHT22;4559;47.252;9.592;2022-08-03T14:37:15;34.80;62.80
9049;DHT22;4559;47.252;9.592;2022-08-03T14:39:41;34.90;62.70
9049;DHT22;4559;47.252;9.592;2022-08-03T14:42:06;34.90;63.40
9049;DHT22;4559;47.252;9.592;2022-08-03T14:44:32;34.80;62.40
9049;DHT22;4559;47.252;9.592;2022-08-03T14:46:57;34.70;63.50
9049;DHT22;4559;47.252;9.592;2022-08-03T14:49:23;34.70;63.70
9049;DHT22;4559;47.252;9.592;2022-08-03T14:51:48;34.70;63.30
9049;DHT22;4559;47.252;9.592;2022-08-03T14:54:14;34.60;62.10
9049;DHT22;4559;47.252;9.592;2022-08-03T14:56:40;34.50;61.80
9049;DHT22;4559;47.252;9.592;2022-08-03T14:59:05;34.40;61.30
9049;DHT22;4559;47.252;9.592;2022-08-03T15:01:31;34.40;61.60
9049;DHT22;4559;47.252;9.592;2022-08-03T15:03:56;34.30;61.70
9049;DHT22;4559;47.252;9.592;2022-08-03T15:06:22;34.30;61.80
9049;DHT22;4559;47.252;9.592;2022-08-03T15:08:48;34.20;62.20
9049;DHT22;4559;47.252;9.592;2022-08-03T15:11:14;34.20;62.20
9049;DHT22;4559;47.252;9.592;2022-08-03T15:13:39;34.10;61.80
9049;DHT22;4559;47.252;9.592;2022-08-03T15:16:05;34.00;62.20
9049;DHT22;4559;47.252;9.592;2022-08-03T15:18:32;34.00;61.80
9049;DHT22;4559;47.252;9.592;2022-08-03T15:20:58;33.90;61.00
9049;DHT22;4559;47.252;9.592;2022-08-03T15:23:24;33.80;61.30
9049;DHT22;4559;47.252;9.592;2022-08-03T15:25:51;33.80;62.40
9049;DHT22;4559;47.252;9.592;2022-08-03T15:28:16;33.70;61.90
9049;DHT22;4559;47.252;9.592;2022-08-03T15:30:42;33.60;61.40
9049;DHT22;4559;47.252;9.592;2022-08-03T15:33:08;33.50;61.90
9049;DHT22;4559;47.252;9.592;2022-08-03T15:35:33;33.40;60.80
9049;DHT22;4559;47.252;9.592;2022-08-03T15:37:59;33.30;61.90
9049;DHT22;4559;47.252;9.592;2022-08-03T15:40:25;33.20;62.00
9049;DHT22;4559;47.252;9.592;2022-08-03T15:42:51;33.20;63.10
9049;DHT22;4559;47.252;9.592;2022-08-03T15:45:16;33.20;62.20
9049;DHT22;4559;47.252;9.592;2022-08-03T15:47:42;33.20;61.80
9049;DHT22;4559;47.252;9.592;2022-08-03T15:50:10;33.10;61.90
9049;DHT22;4559;47.252;9.592;2022-08-03T15:52:36;33.10;62.30
9049;DHT22;4559;47.252;9.592;2022-08-03T15:55:03;33.10;63.00
9049;DHT22;4559;47.252;9.592;2022-08-03T15:57:28;33.10;62.60
9049;DHT22;4559;47.252;9.592;2022-08-03T15:59:54;33.00;62.50
9049;DHT22;4559;47.252;9.592;2022-08-03T16:02:20;33.00;63.40
9049;DHT22;4559;47.252;9.592;2022-08-03T16:04:45;33.00;62.40
9049;DHT22;4559;47.252;9.592;2022-08-03T16:07:11;32.90;62.10
9049;DHT22;4559;47.252;9.592;2022-08-03T16:09:40;32.90;62.60
9049;DHT22;4559;47.252;9.592;2022-08-03T16:12:06;32.90;62.10
9049;DHT22;4559;47.252;9.592;2022-08-03T16:14:32;32.80;62.40
9049;DHT22;4559;47.252;9.592;2022-08-03T16:16:58;32.80;61.90
9049;DHT22;4559;47.252;9.592;2022-08-03T16:19:23;32.80;61.50
9049;DHT22;4559;47.252;9.592;2022-08-03T16:21:49;32.70;61.90
9049;DHT22;4559;47.252;9.592;2022-08-03T16:24:15;32.70;61.80
9049;DHT22;4559;47.252;9.592;2022-08-03T16:26:40;32.70;61.30
9049;DHT22;4559;47.252;9.592;2022-08-03T16:29:06;32.60;62.30
9049;DHT22;4559;47.252;9.592;2022-08-03T16:31:31;32.50;62.00
9049;DHT22;4559;47.252;9.592;2022-08-03T16:33:57;32.50;62.20
9049;DHT22;4559;47.252;9.592;2022-08-03T16:36:23;32.50;63.10
9049;DHT22;4559;47.252;9.592;2022-08-03T16:38:48;32.50;63.40
9049;DHT22;4559;47.252;9.592;2022-08-03T16:41:14;32.40;62.90